createdAt,value
2017-01-04T00:00:07.675Z,1.84
2017-01-04T00:01:08.117Z,1.73
2017-01-04T00:02:08.615Z,1.77
2017-01-04T00:03:08.326Z,1.93
2017-01-04T00:04:08.546Z,1.96
2017-01-04T00:05:08.451Z,2.04
2017-01-04T00:06:07.845Z,2.00
2017-01-04T00:07:08.331Z,1.89
2017-01-04T00:08:09.037Z,2.07
2017-01-04T00:09:08.376Z,2.07
2017-01-04T00:10:07.760Z,2.05
2017-01-04T00:11:08.204Z,1.92
2017-01-04T00:12:07.947Z,1.92
2017-01-04T00:13:08.512Z,2.06
2017-01-04T00:14:07.998Z,2.10
2017-01-04T00:15:08.589Z,2.09
2017-01-04T00:16:07.682Z,2.09
2017-01-04T00:17:09.565Z,2.04
2017-01-04T00:18:07.275Z,1.95
2017-01-04T00:19:08.075Z,1.98
2017-01-04T00:20:08.526Z,1.96
2017-01-04T00:21:08.061Z,1.92
2017-01-04T00:22:08.725Z,2.00
2017-01-04T00:23:08.151Z,1.96
2017-01-04T00:24:08.602Z,1.90
2017-01-04T00:25:08.112Z,2.01
2017-01-04T00:26:08.589Z,1.83
2017-01-04T00:27:07.735Z,2.01
2017-01-04T00:28:08.902Z,1.94
2017-01-04T00:29:08.189Z,1.94
2017-01-04T00:30:09.201Z,1.86
2017-01-04T00:31:08.716Z,1.81
2017-01-04T00:32:08.050Z,1.85
2017-01-04T00:33:08.777Z,2.06
2017-01-04T00:34:08.169Z,2.01
2017-01-04T00:35:09.443Z,2.05
2017-01-04T00:36:08.850Z,2.04
2017-01-04T00:37:08.243Z,2.00
2017-01-04T00:38:08.821Z,1.89
2017-01-04T00:39:08.231Z,1.96
2017-01-04T00:40:09.099Z,1.92
2017-01-04T00:41:08.120Z,1.89
2017-01-04T00:42:09.045Z,1.94
2017-01-04T00:43:07.667Z,1.98
2017-01-04T00:44:08.108Z,1.94
2017-01-04T00:46:08.132Z,1.78
2017-01-04T00:47:08.636Z,1.75
2017-01-04T00:48:07.721Z,1.76
2017-01-04T00:49:07.857Z,1.84
2017-01-04T00:50:09.066Z,1.87
2017-01-04T00:51:08.162Z,1.84
2017-01-04T00:52:08.686Z,1.90
2017-01-04T00:53:07.753Z,1.85
2017-01-04T00:54:09.127Z,1.91
2017-01-04T00:55:08.707Z,1.98
2017-01-04T00:56:08.043Z,1.87
2017-01-04T00:57:08.407Z,2.00
2017-01-04T00:58:09.072Z,2.05
2017-01-04T00:59:09.444Z,1.84
2017-01-04T01:00:08.710Z,1.86
2017-01-04T01:01:08.172Z,1.68
2017-01-04T01:02:08.527Z,1.70
2017-01-04T01:03:07.563Z,1.62
2017-01-04T01:04:08.467Z,1.83
2017-01-04T01:05:07.823Z,1.65
2017-01-04T01:06:09.371Z,1.71
2017-01-04T01:07:08.568Z,1.69
2017-01-04T01:08:07.879Z,1.73
2017-01-04T01:09:07.775Z,1.85
2017-01-04T01:10:08.078Z,1.83
2017-01-04T01:11:09.104Z,1.83
2017-01-04T01:12:08.473Z,1.66
2017-01-04T01:13:08.438Z,1.72
2017-01-04T01:14:07.829Z,1.70
2017-01-04T01:15:08.448Z,1.71
2017-01-04T01:16:07.773Z,1.69
2017-01-04T01:17:08.383Z,1.81
2017-01-04T01:18:07.700Z,2.01
2017-01-04T01:19:07.983Z,2.07
2017-01-04T01:20:08.396Z,1.89
2017-01-04T01:21:07.670Z,1.85
2017-01-04T01:22:08.802Z,1.59
2017-01-04T01:23:07.689Z,1.74
2017-01-04T01:25:08.854Z,1.78
2017-01-04T01:26:07.839Z,1.75
2017-01-04T01:27:08.453Z,1.76
2017-01-04T01:28:07.795Z,1.89
2017-01-04T01:29:08.212Z,1.88
2017-01-04T01:30:08.198Z,1.82
2017-01-04T01:31:08.343Z,1.82
2017-01-04T01:32:08.971Z,1.90
2017-01-04T01:33:08.186Z,1.91
2017-01-04T01:34:08.684Z,1.91
2017-01-04T01:35:07.725Z,1.70
2017-01-04T01:36:09.185Z,1.92
2017-01-04T01:37:08.259Z,1.92
2017-01-04T01:38:07.262Z,1.66
2017-01-04T01:39:09.367Z,1.62
2017-01-04T01:40:08.612Z,1.71
2017-01-04T01:41:09.133Z,1.68
2017-01-04T01:42:08.392Z,1.68
2017-01-04T01:43:07.665Z,1.78
2017-01-04T01:44:08.866Z,1.55
2017-01-04T01:45:08.162Z,1.67
2017-01-04T01:46:08.605Z,1.76
2017-01-04T01:47:08.722Z,1.74
2017-01-04T01:48:09.541Z,1.62
2017-01-04T01:49:08.860Z,1.72
2017-01-04T01:50:08.537Z,1.61
2017-01-04T01:51:08.928Z,1.73
2017-01-04T01:52:07.829Z,1.64
2017-01-04T01:53:08.480Z,1.63
2017-01-04T01:54:07.813Z,1.64
2017-01-04T01:55:08.193Z,1.70
2017-01-04T01:56:08.153Z,1.61
2017-01-04T01:57:08.394Z,1.62
2017-01-04T01:58:07.770Z,1.60
2017-01-04T01:59:08.208Z,1.58
2017-01-04T02:00:08.516Z,1.67
2017-01-04T02:01:08.413Z,1.65
2017-01-04T02:02:08.590Z,1.59
2017-01-04T02:03:08.362Z,1.43
2017-01-04T02:04:08.872Z,1.55
2017-01-04T02:05:08.207Z,1.57
2017-01-04T02:06:08.939Z,1.53
2017-01-04T02:07:08.123Z,1.51
2017-01-04T02:08:08.582Z,1.76
2017-01-04T02:09:09.145Z,1.79
2017-01-04T02:10:08.038Z,1.75
2017-01-04T02:11:08.162Z,1.86
2017-01-04T02:12:09.418Z,1.82
2017-01-04T02:13:07.421Z,1.66
2017-01-04T02:14:07.260Z,1.75
2017-01-04T02:15:08.578Z,1.65
2017-01-04T02:16:07.821Z,1.57
2017-01-04T02:17:08.151Z,1.44
2017-01-04T02:18:08.234Z,1.54
2017-01-04T02:19:08.420Z,1.55
2017-01-04T02:20:07.698Z,1.27
2017-01-04T02:21:08.255Z,1.40
2017-01-04T02:22:08.629Z,1.41
2017-01-04T02:23:07.916Z,1.43
2017-01-04T02:24:08.030Z,1.43
2017-01-04T02:25:08.403Z,1.24
2017-01-04T02:26:07.865Z,1.38
2017-01-04T02:27:08.489Z,1.33
2017-01-04T02:28:07.483Z,1.39
2017-01-04T02:29:08.057Z,1.26
2017-01-04T02:30:08.374Z,1.44
2017-01-04T02:31:08.382Z,1.45
2017-01-04T02:32:08.269Z,1.39
2017-01-04T02:33:07.950Z,1.39
2017-01-04T02:34:07.375Z,1.44
2017-01-04T02:35:07.788Z,1.39
2017-01-04T02:36:08.254Z,1.35
2017-01-04T02:37:08.751Z,1.23
2017-01-04T02:38:07.850Z,1.21
2017-01-04T02:39:08.214Z,1.31
2017-01-04T02:40:08.594Z,1.26
2017-01-04T02:41:07.812Z,1.36
2017-01-04T02:42:08.096Z,1.51
2017-01-04T02:43:10.014Z,1.48
2017-01-04T02:44:07.922Z,1.51
2017-01-04T02:45:07.740Z,1.57
2017-01-04T02:46:07.944Z,1.67
2017-01-04T02:47:08.345Z,1.43
2017-01-04T02:48:08.304Z,1.42
2017-01-04T02:49:08.230Z,1.23
2017-01-04T02:50:08.940Z,1.28
2017-01-04T02:51:07.897Z,1.29
2017-01-04T02:52:08.679Z,1.21
2017-01-04T02:53:07.580Z,1.23
2017-01-04T02:54:08.233Z,1.27
2017-01-04T02:55:07.922Z,1.28
2017-01-04T02:56:08.280Z,1.07
2017-01-04T02:57:09.042Z,1.15
2017-01-04T02:58:08.701Z,1.21
2017-01-04T02:59:07.823Z,1.17
2017-01-04T03:00:08.189Z,1.12
2017-01-04T03:01:09.549Z,1.26
2017-01-04T03:02:07.594Z,1.07
2017-01-04T03:03:08.026Z,1.17
2017-01-04T03:04:08.325Z,1.27
2017-01-04T03:05:08.724Z,1.22
2017-01-04T03:06:07.858Z,1.24
2017-01-04T03:07:08.494Z,1.23
2017-01-04T03:08:07.859Z,1.14
2017-01-04T03:09:07.840Z,1.21
2017-01-04T03:10:08.256Z,1.34
2017-01-04T03:11:09.085Z,1.16
2017-01-04T03:12:08.393Z,1.22
2017-01-04T03:13:07.597Z,1.19
2017-01-04T03:14:08.054Z,1.12
2017-01-04T03:15:08.305Z,1.32
2017-01-04T03:16:08.502Z,1.39
2017-01-04T03:17:09.099Z,1.43
2017-01-04T03:18:08.278Z,1.55
2017-01-04T03:19:08.520Z,1.55
2017-01-04T03:20:09.323Z,1.39
2017-01-04T03:21:08.154Z,1.36
2017-01-04T03:22:08.026Z,1.52
2017-01-04T03:23:08.240Z,1.39
2017-01-04T03:24:07.474Z,1.42
2017-01-04T03:25:08.205Z,1.37
2017-01-04T03:26:08.436Z,1.10
2017-01-04T03:27:07.954Z,1.18
2017-01-04T03:28:08.455Z,1.24
2017-01-04T03:29:08.256Z,1.29
2017-01-04T03:30:07.894Z,1.36
2017-01-04T03:31:08.046Z,1.25
2017-01-04T03:32:08.255Z,1.11
2017-01-04T03:33:08.520Z,1.16
2017-01-04T03:34:07.445Z,1.24
2017-01-04T03:35:08.053Z,1.11
2017-01-04T03:36:08.175Z,1.14
2017-01-04T03:37:08.546Z,1.32
2017-01-04T03:38:07.845Z,1.28
2017-01-04T03:39:08.219Z,1.18
2017-01-04T03:40:08.662Z,1.15
2017-01-04T03:41:07.681Z,1.24
2017-01-04T03:42:08.538Z,1.28
2017-01-04T03:43:08.011Z,1.16
2017-01-04T03:44:08.412Z,1.11
2017-01-04T03:45:07.565Z,1.13
2017-01-04T03:46:08.124Z,1.26
2017-01-04T03:47:08.915Z,1.04
2017-01-04T03:48:08.024Z,1.17
2017-01-04T03:49:08.341Z,1.12
2017-01-04T03:50:08.794Z,1.23
2017-01-04T03:51:07.965Z,1.13
2017-01-04T03:52:08.254Z,1.22
2017-01-04T03:53:07.857Z,1.21
2017-01-04T03:54:08.299Z,1.24
2017-01-04T03:55:08.665Z,1.25
2017-01-04T03:56:08.096Z,1.31
2017-01-04T03:57:07.916Z,1.35
2017-01-04T03:58:08.318Z,1.35
2017-01-04T03:59:07.970Z,1.39
2017-01-04T04:00:08.473Z,1.43
2017-01-04T04:01:07.967Z,1.46
2017-01-04T04:02:08.465Z,1.42
2017-01-04T04:03:07.633Z,1.35
2017-01-04T04:04:08.354Z,1.24
2017-01-04T04:05:07.620Z,1.28
2017-01-04T04:06:08.105Z,1.18
2017-01-04T04:07:08.230Z,1.20
2017-01-04T04:08:08.574Z,1.32
2017-01-04T04:09:07.656Z,1.47
2017-01-04T04:10:08.207Z,1.43
2017-01-04T04:11:08.571Z,1.43
2017-01-04T04:12:07.992Z,1.44
2017-01-04T04:13:08.015Z,1.45
2017-01-04T04:14:08.507Z,1.18
2017-01-04T04:15:07.956Z,1.20
2017-01-04T04:16:08.591Z,1.19
2017-01-04T04:17:07.852Z,1.28
2017-01-04T04:18:08.568Z,1.46
2017-01-04T04:19:07.725Z,1.54
2017-01-04T04:20:08.397Z,1.39
2017-01-04T04:21:07.584Z,1.52
2017-01-04T04:22:07.747Z,1.38
2017-01-04T04:23:08.566Z,1.44
2017-01-04T04:24:07.993Z,1.52
2017-01-04T04:25:08.346Z,1.47
2017-01-04T04:26:07.522Z,1.45
2017-01-04T04:27:08.826Z,1.51
2017-01-04T04:28:08.004Z,1.43
2017-01-04T04:29:07.494Z,1.39
2017-01-04T04:30:07.572Z,1.40
2017-01-04T04:31:07.748Z,1.42
2017-01-04T04:32:07.591Z,1.65
2017-01-04T04:33:08.061Z,1.49
2017-01-04T04:34:08.330Z,1.49
2017-01-04T04:35:08.654Z,1.51
2017-01-04T04:36:07.937Z,1.49
2017-01-04T04:37:08.345Z,1.57
2017-01-04T04:38:08.589Z,1.55
2017-01-04T04:39:08.067Z,1.55
2017-01-04T04:40:08.375Z,1.64
2017-01-04T04:41:07.574Z,1.72
2017-01-04T04:42:08.114Z,1.75
2017-01-04T04:43:08.704Z,1.80
2017-01-04T04:44:08.010Z,1.67
2017-01-04T04:45:08.600Z,1.79
2017-01-04T04:46:08.202Z,1.59
2017-01-04T04:47:08.601Z,1.72
2017-01-04T04:48:08.064Z,1.78
2017-01-04T04:49:08.567Z,1.78
2017-01-04T04:50:08.028Z,1.84
2017-01-04T04:51:08.464Z,1.71
2017-01-04T04:52:07.662Z,1.77
2017-01-04T04:53:08.412Z,1.83
2017-01-04T04:54:07.722Z,1.86
2017-01-04T04:55:07.948Z,1.80
2017-01-04T04:56:08.530Z,1.87
2017-01-04T04:57:07.964Z,1.70
2017-01-04T04:58:08.365Z,1.74
2017-01-04T04:59:07.547Z,1.75
2017-01-04T05:00:07.990Z,1.74
2017-01-04T05:01:08.690Z,1.62
2017-01-04T05:02:07.632Z,1.81
2017-01-04T05:03:08.416Z,1.71
2017-01-04T05:04:08.008Z,1.64
2017-01-04T05:05:08.322Z,1.64
2017-01-04T05:06:07.762Z,1.73
2017-01-04T05:07:08.166Z,1.85
2017-01-04T05:08:08.515Z,1.88
2017-01-04T05:09:07.909Z,1.93
2017-01-04T05:10:08.299Z,1.76
2017-01-04T05:11:08.734Z,1.85
2017-01-04T05:12:08.018Z,1.88
2017-01-04T05:13:08.464Z,1.84
2017-01-04T05:14:07.663Z,1.79
2017-01-04T05:15:07.798Z,1.82
2017-01-04T05:16:08.048Z,1.88
2017-01-04T05:17:09.062Z,1.78
2017-01-04T05:18:08.393Z,1.91
2017-01-04T05:19:07.207Z,1.70
2017-01-04T05:20:08.512Z,1.79
2017-01-04T05:21:08.051Z,1.74
2017-01-04T05:22:08.047Z,1.75
2017-01-04T05:23:07.717Z,1.82
2017-01-04T05:24:08.139Z,1.81
2017-01-04T05:25:11.256Z,1.66
2017-01-04T05:26:08.283Z,1.70
2017-01-04T05:27:08.647Z,1.67
2017-01-04T05:28:08.119Z,1.67
2017-01-04T05:29:08.456Z,1.74
2017-01-04T05:30:07.935Z,1.75
2017-01-04T05:31:08.191Z,1.65
2017-01-04T05:32:08.433Z,1.40
2017-01-04T05:33:07.762Z,1.43
2017-01-04T05:34:08.065Z,1.51
2017-01-04T05:35:08.388Z,1.48
2017-01-04T05:36:07.278Z,1.45
2017-01-04T05:37:08.206Z,1.45
2017-01-04T05:38:08.586Z,1.46
2017-01-04T05:39:07.938Z,1.29
2017-01-04T05:40:08.159Z,1.18
2017-01-04T05:41:08.785Z,1.21
2017-01-04T05:42:08.130Z,1.24
2017-01-04T05:43:08.496Z,1.17
2017-01-04T05:44:07.715Z,1.37
2017-01-04T05:45:08.045Z,1.42
2017-01-04T05:46:08.556Z,1.39
2017-01-04T05:47:07.997Z,1.41
2017-01-04T05:48:08.238Z,1.35
2017-01-04T05:49:08.613Z,1.41
2017-01-04T05:50:08.068Z,1.30
2017-01-04T05:51:08.600Z,1.31
2017-01-04T05:52:07.696Z,1.45
2017-01-04T05:53:08.105Z,1.31
2017-01-04T05:54:07.717Z,1.41
2017-01-04T05:55:08.095Z,1.18
2017-01-04T05:56:08.568Z,1.35
2017-01-04T05:57:07.722Z,1.28
2017-01-04T05:58:07.959Z,1.34
2017-01-04T05:59:08.596Z,1.27
2017-01-04T06:00:07.942Z,1.56
2017-01-04T06:01:08.344Z,1.59
2017-01-04T06:02:09.534Z,1.59
2017-01-04T06:03:08.669Z,1.64
2017-01-04T06:04:08.503Z,1.40
2017-01-04T06:05:07.788Z,1.52
2017-01-04T06:06:08.097Z,1.71
2017-01-04T06:07:08.540Z,1.66
2017-01-04T06:08:08.728Z,1.42
2017-01-04T06:09:08.076Z,1.50
2017-01-04T06:10:08.078Z,1.38
2017-01-04T06:11:08.537Z,1.51
2017-01-04T06:12:07.571Z,1.44
2017-01-04T06:13:08.555Z,1.66
2017-01-04T06:14:07.772Z,1.38
2017-01-04T06:15:08.186Z,1.56
2017-01-04T06:16:08.550Z,1.41
2017-01-04T06:17:08.065Z,1.54
2017-01-04T06:18:07.633Z,1.63
2017-01-04T06:19:09.226Z,1.71
2017-01-04T06:20:07.864Z,1.68
2017-01-04T06:21:08.635Z,1.59
2017-01-04T06:22:08.073Z,1.64
2017-01-04T06:23:08.508Z,1.74
2017-01-04T06:24:07.643Z,1.59
2017-01-04T06:25:08.168Z,1.68
2017-01-04T06:26:08.661Z,1.63
2017-01-04T06:27:08.794Z,1.65
2017-01-04T06:28:09.080Z,1.57
2017-01-04T06:29:08.173Z,1.66
2017-01-04T06:30:09.104Z,1.64
2017-01-04T06:31:08.388Z,1.54
2017-01-04T06:32:07.722Z,1.60
2017-01-04T06:33:08.182Z,1.68
2017-01-04T06:34:08.542Z,1.75
2017-01-04T06:35:07.750Z,1.63
2017-01-04T06:36:08.448Z,1.51
2017-01-04T06:37:07.726Z,1.69
2017-01-04T06:38:07.746Z,1.72
2017-01-04T06:39:09.661Z,1.62
2017-01-04T06:40:07.802Z,1.64
2017-01-04T06:41:08.208Z,1.66
2017-01-04T06:42:07.687Z,1.61
2017-01-04T06:43:07.887Z,1.65
2017-01-04T06:44:08.505Z,1.48
2017-01-04T06:45:07.552Z,1.55
2017-01-04T06:46:08.698Z,1.60
2017-01-04T06:47:09.030Z,1.57
2017-01-04T06:48:08.281Z,1.55
2017-01-04T06:49:07.719Z,1.58
2017-01-04T06:50:08.117Z,1.67
2017-01-04T06:51:08.651Z,1.43
2017-01-04T06:52:08.096Z,1.33
2017-01-04T06:53:08.475Z,1.53
2017-01-04T06:54:20.899Z,1.42
2017-01-04T06:55:07.840Z,1.36
2017-01-04T06:56:07.791Z,1.53
2017-01-04T06:57:08.393Z,1.64
2017-01-04T06:58:07.832Z,1.80
2017-01-04T06:59:08.188Z,1.64
2017-01-04T07:00:07.774Z,1.73
2017-01-04T07:01:08.340Z,1.92
2017-01-04T07:02:08.510Z,1.61
2017-01-04T07:03:07.731Z,1.68
2017-01-04T07:04:08.418Z,1.71
2017-01-04T07:05:07.744Z,1.50
2017-01-04T07:06:07.766Z,1.74
2017-01-04T07:07:08.297Z,1.81
2017-01-04T07:08:08.640Z,1.47
2017-01-04T07:09:07.841Z,1.50
2017-01-04T07:10:08.517Z,1.66
2017-01-04T07:11:07.791Z,1.64
2017-01-04T07:12:08.151Z,1.60
2017-01-04T07:13:08.566Z,1.52
2017-01-04T07:14:08.110Z,1.63
2017-01-04T07:15:07.574Z,1.58
2017-01-04T07:16:07.900Z,1.49
2017-01-04T07:17:08.276Z,1.51
2017-01-04T07:18:08.558Z,1.43
2017-01-04T07:19:07.778Z,1.69
2017-01-04T07:20:08.279Z,1.86
2017-01-04T07:21:07.729Z,1.62
2017-01-04T07:22:08.214Z,1.77
2017-01-04T07:23:08.589Z,1.82
2017-01-04T07:24:07.787Z,1.65
2017-01-04T07:25:08.083Z,1.75
2017-01-04T07:26:08.536Z,1.84
2017-01-04T07:27:07.791Z,1.81
2017-01-04T07:28:08.199Z,1.76
2017-01-04T07:29:08.583Z,1.68
2017-01-04T07:30:07.383Z,1.76
2017-01-04T07:31:08.203Z,1.71
2017-01-04T07:32:08.539Z,1.84
2017-01-04T07:33:07.771Z,1.74
2017-01-04T07:34:08.162Z,1.75
2017-01-04T07:35:08.328Z,1.86
2017-01-04T07:36:08.265Z,1.89
2017-01-04T07:37:08.567Z,1.93
2017-01-04T07:38:08.016Z,1.88
2017-01-04T07:39:08.161Z,2.01
2017-01-04T07:40:08.663Z,2.06
2017-01-04T07:41:07.867Z,2.08
2017-01-04T07:42:08.292Z,2.03
2017-01-04T07:43:08.751Z,2.16
2017-01-04T07:44:07.951Z,2.15
2017-01-04T07:45:08.401Z,1.97
2017-01-04T07:46:07.561Z,1.96
2017-01-04T07:47:08.181Z,2.11
2017-01-04T07:48:08.543Z,2.18
2017-01-04T07:49:07.430Z,2.23
2017-01-04T07:50:09.440Z,2.20
2017-01-04T07:51:08.904Z,2.01
2017-01-04T07:52:08.032Z,1.92
2017-01-04T07:53:08.286Z,1.98
2017-01-04T07:54:08.399Z,1.97
2017-01-04T07:55:07.534Z,2.03
2017-01-04T07:56:07.819Z,1.92
2017-01-04T07:57:08.316Z,2.14
2017-01-04T07:58:08.547Z,2.02
2017-01-04T07:59:08.012Z,1.94
2017-01-04T08:00:08.594Z,1.81
2017-01-04T08:01:07.424Z,1.95
2017-01-04T08:02:08.598Z,2.07
2017-01-04T08:03:08.169Z,2.11
2017-01-04T08:04:08.503Z,2.06
2017-01-04T08:05:07.794Z,1.99
2017-01-04T08:06:08.248Z,2.05
2017-01-04T08:07:08.791Z,2.08
2017-01-04T08:08:08.276Z,2.22
2017-01-04T08:09:09.500Z,2.28
2017-01-04T08:10:07.598Z,2.16
2017-01-04T08:11:07.845Z,2.14
2017-01-04T08:12:08.340Z,2.09
2017-01-04T08:13:08.373Z,2.01
2017-01-04T08:14:08.417Z,2.02
2017-01-04T08:15:07.646Z,2.07
2017-01-04T08:16:07.900Z,2.18
2017-01-04T08:17:08.601Z,2.11
2017-01-04T08:18:07.947Z,2.30
2017-01-04T08:19:07.619Z,2.10
2017-01-04T08:20:08.537Z,2.12
2017-01-04T08:21:07.797Z,2.16
2017-01-04T08:22:08.191Z,2.18
2017-01-04T08:23:07.537Z,2.40
2017-01-04T08:24:07.899Z,2.44
2017-01-04T08:25:08.312Z,2.51
2017-01-04T08:26:08.057Z,2.36
2017-01-04T08:27:08.380Z,2.29
2017-01-04T08:28:08.193Z,2.22
2017-01-04T08:29:08.191Z,2.68
2017-01-04T08:30:08.437Z,2.97
2017-01-04T08:31:08.008Z,2.85
2017-01-04T08:32:09.826Z,2.45
2017-01-04T08:33:08.041Z,2.50
2017-01-04T08:34:08.533Z,2.27
2017-01-04T08:35:08.028Z,2.19
2017-01-04T08:36:08.379Z,2.25
2017-01-04T08:37:07.830Z,2.37
2017-01-04T08:39:08.335Z,2.43
2017-01-04T08:40:07.587Z,2.33
2017-01-04T08:41:08.431Z,2.43
2017-01-04T08:42:07.859Z,2.34
2017-01-04T08:43:08.287Z,2.34
2017-01-04T08:44:07.605Z,2.43
2017-01-04T08:45:07.941Z,2.37
2017-01-04T08:46:08.684Z,2.51
2017-01-04T08:47:07.876Z,2.43
2017-01-04T08:48:07.905Z,2.38
2017-01-04T08:49:08.347Z,2.53
2017-01-04T08:50:08.683Z,2.46
2017-01-04T08:51:07.949Z,2.38
2017-01-04T08:52:08.245Z,2.42
2017-01-04T08:53:08.724Z,2.32
2017-01-04T08:54:08.337Z,2.39
2017-01-04T08:55:07.601Z,2.16
2017-01-04T08:56:08.608Z,2.31
2017-01-04T08:57:07.918Z,2.38
2017-01-04T08:58:08.625Z,2.26
2017-01-04T08:59:08.910Z,2.33
2017-01-04T09:00:08.822Z,2.37
2017-01-04T09:01:08.325Z,2.44
2017-01-04T09:02:08.786Z,2.42
2017-01-04T09:03:08.364Z,2.39
2017-01-04T09:04:07.705Z,2.41
2017-01-04T09:05:08.284Z,2.53
2017-01-04T09:06:07.456Z,2.49
2017-01-04T09:07:07.815Z,2.39
2017-01-04T09:08:07.989Z,2.49
2017-01-04T09:09:17.594Z,2.38
2017-01-04T09:10:07.347Z,2.44
2017-01-04T09:11:07.637Z,2.17
2017-01-04T09:12:08.325Z,2.37
2017-01-04T09:13:07.560Z,2.37
2017-01-04T09:14:08.025Z,2.46
2017-01-04T09:15:08.390Z,2.48
2017-01-04T09:16:08.648Z,2.42
2017-01-04T09:17:07.991Z,2.44
2017-01-04T09:18:08.777Z,2.36
2017-01-04T09:19:07.962Z,2.54
2017-01-04T09:20:09.019Z,2.44
2017-01-04T09:21:08.677Z,2.58
2017-01-04T09:22:08.835Z,2.56
2017-01-04T09:23:08.028Z,2.47
2017-01-04T09:24:08.941Z,2.51
2017-01-04T09:25:08.416Z,2.34
2017-01-04T09:26:07.677Z,2.37
2017-01-04T09:27:07.888Z,2.51
2017-01-04T09:28:10.137Z,2.43
2017-01-04T09:29:08.380Z,2.30
2017-01-04T09:30:07.754Z,2.21
2017-01-04T09:31:08.209Z,2.26
2017-01-04T09:32:08.212Z,2.30
2017-01-04T09:33:08.793Z,2.29
2017-01-04T09:34:07.954Z,2.29
2017-01-04T09:35:08.463Z,2.31
2017-01-04T09:36:07.605Z,2.17
2017-01-04T09:37:07.617Z,2.11
2017-01-04T09:38:08.013Z,2.14
2017-01-04T09:39:08.338Z,2.09
2017-01-04T09:40:07.672Z,2.23
2017-01-04T09:41:07.965Z,2.26
2017-01-04T09:42:08.456Z,2.31
2017-01-04T09:43:07.688Z,2.48
2017-01-04T09:44:08.120Z,2.25
2017-01-04T09:45:08.585Z,2.34
2017-01-04T09:46:07.618Z,2.37
2017-01-04T09:47:07.945Z,2.42
2017-01-04T09:48:08.428Z,2.47
2017-01-04T09:49:07.400Z,2.38
2017-01-04T09:50:08.647Z,2.31
2017-01-04T09:51:07.879Z,2.33
2017-01-04T09:52:08.203Z,2.21
2017-01-04T09:53:10.172Z,2.16
2017-01-04T09:54:08.101Z,2.14
2017-01-04T09:55:09.838Z,1.98
2017-01-04T09:56:08.050Z,2.16
2017-01-04T09:57:08.302Z,2.17
2017-01-04T09:58:08.762Z,2.26
2017-01-04T09:59:07.961Z,2.43
2017-01-04T10:00:09.879Z,2.45
2017-01-04T10:01:08.084Z,2.55
2017-01-04T10:02:08.613Z,2.26
2017-01-04T10:03:07.823Z,2.30
2017-01-04T10:04:08.052Z,2.33
2017-01-04T10:05:08.480Z,2.48
2017-01-04T10:06:07.540Z,2.35
2017-01-04T10:07:07.663Z,2.40
2017-01-04T10:08:08.181Z,2.26
2017-01-04T10:09:08.299Z,2.28
2017-01-04T10:10:08.660Z,2.45
2017-01-04T10:11:07.983Z,2.32
2017-01-04T10:12:08.420Z,2.56
2017-01-04T10:13:07.735Z,2.38
2017-01-04T10:14:07.891Z,2.27
2017-01-04T10:15:08.033Z,2.16
2017-01-04T10:16:08.501Z,2.16
2017-01-04T10:17:07.944Z,2.30
2017-01-04T10:18:08.348Z,2.16
2017-01-04T10:19:07.707Z,2.35
2017-01-04T10:20:07.992Z,2.34
2017-01-04T10:21:08.148Z,2.34
2017-01-04T10:22:08.482Z,2.30
2017-01-04T10:23:07.777Z,2.18
2017-01-04T10:24:08.040Z,2.20
2017-01-04T10:25:09.128Z,2.30
2017-01-04T10:26:07.766Z,2.27
2017-01-04T10:27:08.023Z,2.38
2017-01-04T10:28:09.519Z,2.42
2017-01-04T10:29:07.638Z,2.53
2017-01-04T10:30:08.207Z,2.39
2017-01-04T10:31:08.626Z,2.39
2017-01-04T10:32:07.779Z,2.40
2017-01-04T10:33:07.951Z,2.32
2017-01-04T10:34:09.150Z,2.21
2017-01-04T10:35:08.163Z,2.13
2017-01-04T10:36:07.719Z,2.29
2017-01-04T10:37:08.019Z,2.38
2017-01-04T10:38:08.267Z,2.30
2017-01-04T10:39:07.637Z,2.55
2017-01-04T10:40:07.784Z,2.53
2017-01-04T10:41:07.785Z,2.28
2017-01-04T10:42:08.031Z,2.44
2017-01-04T10:43:08.808Z,2.40
2017-01-04T10:44:07.981Z,2.39
2017-01-04T10:45:08.382Z,2.53
2017-01-04T10:46:07.812Z,2.50
2017-01-04T10:47:08.448Z,2.14
2017-01-04T10:48:07.693Z,2.13
2017-01-04T10:49:07.969Z,2.22
2017-01-04T10:50:08.599Z,2.26
2017-01-04T10:51:07.735Z,2.31
2017-01-04T10:52:07.794Z,2.32
2017-01-04T11:43:08.367Z,2.14
2017-01-04T11:44:08.424Z,2.22
2017-01-04T11:45:07.445Z,2.07
2017-01-04T11:46:08.096Z,2.03
2017-01-04T11:47:08.517Z,1.89
2017-01-04T11:48:07.945Z,1.91
2017-01-04T11:49:08.585Z,2.01
2017-01-04T11:50:07.769Z,2.07
2017-01-04T11:51:07.891Z,2.23
2017-01-04T11:52:08.403Z,2.23
2017-01-04T11:53:07.655Z,2.29
2017-01-04T11:54:07.961Z,2.43
2017-01-04T11:55:09.416Z,2.13
2017-01-04T11:56:07.889Z,2.07
2017-01-04T11:57:08.610Z,2.03
2017-01-04T11:58:07.841Z,2.08
2017-01-04T11:59:08.068Z,2.00
2017-01-04T12:00:08.557Z,2.05
2017-01-04T12:01:08.805Z,1.95
2017-01-04T12:02:07.798Z,2.02
2017-01-04T12:03:08.164Z,2.22
2017-01-04T12:04:08.631Z,2.12
2017-01-04T12:05:07.870Z,2.06
2017-01-04T12:06:08.280Z,2.13
2017-01-04T12:07:08.526Z,2.20
2017-01-04T12:08:07.933Z,2.17
2017-01-04T12:09:08.294Z,2.22
2017-01-04T12:10:07.870Z,2.18
2017-01-04T12:11:08.174Z,2.21
2017-01-04T12:12:09.477Z,2.18
2017-01-04T12:13:07.651Z,1.96
2017-01-04T12:14:07.693Z,2.04
2017-01-04T12:15:08.193Z,2.09
2017-01-04T12:16:09.133Z,2.17
2017-01-04T12:17:08.722Z,2.06
2017-01-04T12:18:07.843Z,2.03
2017-01-04T12:19:08.241Z,2.12
2017-01-04T12:20:07.499Z,2.19
2017-01-04T12:21:07.773Z,2.10
2017-01-04T12:22:08.151Z,2.21
2017-01-04T12:23:08.287Z,2.07
2017-01-04T12:24:07.892Z,2.06
2017-01-04T12:25:08.131Z,2.16
2017-01-04T12:26:08.606Z,2.30
2017-01-04T12:27:07.893Z,2.38
2017-01-04T12:28:07.954Z,2.35
2017-01-04T12:29:08.183Z,2.18
2017-01-04T12:30:08.762Z,2.25
2017-01-04T12:31:07.918Z,2.26
2017-01-04T12:32:08.207Z,2.23
2017-01-04T12:33:08.675Z,2.14
2017-01-04T12:34:07.815Z,2.14
2017-01-04T12:35:08.263Z,2.20
2017-01-04T12:36:08.356Z,2.24
2017-01-04T12:37:08.711Z,2.17
2017-01-04T12:38:07.995Z,2.22
2017-01-04T12:39:08.208Z,2.31
2017-01-04T12:40:08.573Z,2.26
2017-01-04T12:41:07.585Z,2.43
2017-01-04T12:42:07.880Z,2.16
2017-01-04T12:43:08.304Z,2.15
2017-01-04T12:44:07.781Z,2.11
2017-01-04T12:45:07.969Z,2.30
2017-01-04T12:46:08.373Z,2.30
2017-01-04T12:47:07.596Z,2.15
2017-01-04T12:48:07.860Z,2.16
2017-01-04T12:49:08.006Z,2.05
2017-01-04T12:50:08.309Z,2.07
2017-01-04T12:51:07.932Z,2.07
2017-01-04T12:52:07.957Z,2.27
2017-01-04T12:53:08.276Z,2.21
2017-01-04T12:54:08.670Z,2.18
2017-01-04T12:55:07.906Z,2.28
2017-01-04T12:56:08.068Z,2.05
2017-01-04T12:57:07.965Z,2.10
2017-01-04T12:58:08.266Z,2.17
2017-01-04T12:59:07.478Z,2.40
2017-01-04T13:00:07.628Z,2.15
2017-01-04T13:01:08.033Z,2.21
2017-01-04T13:02:08.313Z,2.18
2017-01-04T13:03:07.585Z,2.14
2017-01-04T13:04:07.491Z,2.07
2017-01-04T13:05:07.652Z,2.11
2017-01-04T13:06:07.898Z,2.15
2017-01-04T13:07:08.260Z,2.22
2017-01-04T13:08:07.605Z,2.22
2017-01-04T13:09:08.427Z,2.13
2017-01-04T13:10:08.012Z,2.24
2017-01-04T13:11:08.718Z,2.10
2017-01-04T13:12:07.964Z,2.18
2017-01-04T13:13:08.747Z,2.29
2017-01-04T13:15:09.078Z,2.23
2017-01-04T13:16:08.329Z,2.31
2017-01-04T13:17:07.647Z,2.31
2017-01-04T13:18:08.118Z,2.46
2017-01-04T13:19:08.232Z,2.55
2017-01-04T13:20:08.592Z,2.29
2017-01-04T13:21:07.894Z,2.11
2017-01-04T13:22:08.029Z,2.06
2017-01-04T13:23:08.356Z,2.29
2017-01-04T13:24:07.613Z,2.18
2017-01-04T13:25:07.967Z,2.21
2017-01-04T13:26:07.999Z,2.20
2017-01-04T13:27:07.615Z,2.42
2017-01-04T13:28:07.931Z,2.54
2017-01-04T13:29:07.937Z,2.43
2017-01-04T13:30:08.307Z,2.43
2017-01-04T13:31:09.468Z,2.38
2017-01-04T13:32:07.651Z,2.30
2017-01-04T13:33:07.985Z,2.20
2017-01-04T13:34:08.590Z,2.21
2017-01-04T13:35:07.670Z,2.29
2017-01-04T13:36:07.941Z,2.11
2017-01-04T13:37:08.264Z,2.23
2017-01-04T13:38:07.964Z,2.33
2017-01-04T13:39:20.192Z,2.03
2017-01-04T13:40:08.318Z,2.17
2017-01-04T13:41:08.363Z,2.40
2017-01-04T13:42:07.711Z,2.44
2017-01-04T13:43:07.936Z,2.44
2017-01-04T13:44:08.234Z,2.37
2017-01-04T13:45:07.739Z,2.34
2017-01-04T13:46:07.939Z,2.30
2017-01-04T13:47:08.131Z,2.39
2017-01-04T13:48:09.323Z,2.25
2017-01-04T13:49:08.871Z,2.35
2017-01-04T13:50:08.007Z,2.33
2017-01-04T13:51:08.050Z,2.25
2017-01-04T13:52:08.271Z,2.05
2017-01-04T13:53:08.407Z,2.05
2017-01-04T13:54:07.966Z,2.10
2017-01-04T13:55:08.322Z,1.93
2017-01-04T13:56:07.596Z,1.95
2017-01-04T13:57:07.784Z,1.95
2017-01-04T13:58:07.922Z,1.89
2017-01-04T13:59:07.979Z,2.03
2017-01-04T14:00:08.033Z,1.92
2017-01-04T14:01:07.976Z,2.08
2017-01-04T14:02:07.995Z,2.01
2017-01-04T14:03:08.314Z,1.82
2017-01-04T14:04:07.972Z,1.86
2017-01-04T14:05:08.258Z,1.74
2017-01-04T14:06:08.895Z,1.86
2017-01-04T14:07:07.981Z,1.98
2017-01-04T14:08:09.482Z,1.97
2017-01-04T14:09:07.402Z,1.93
2017-01-04T14:10:09.018Z,2.02
2017-01-04T14:11:08.275Z,2.16
2017-01-04T14:12:08.553Z,1.87